createdAt,value
2019-03-17T00:00:18.090Z,99289.66
2019-03-17T00:02:47.539Z,99278.48
2019-03-17T00:05:17.063Z,99272.00
2019-03-17T00:07:46.579Z,99278.72
2019-03-17T00:10:16.139Z,99269.91
2019-03-17T00:12:45.629Z,99274.92
2019-03-17T00:15:15.262Z,99272.59
2019-03-17T00:17:44.768Z,99277.78
2019-03-17T00:20:14.296Z,99268.97
2019-03-17T00:22:43.800Z,99265.66
2019-03-17T00:25:13.429Z,99260.98
2019-03-17T00:27:43.011Z,99260.03
2019-03-17T00:30:13.250Z,99248.02
2019-03-17T00:32:42.716Z,99259.91
2019-03-17T00:35:12.319Z,99258.95
2019-03-17T00:37:41.801Z,99247.33
2019-03-17T00:40:12.076Z,99244.59
2019-03-17T00:42:41.651Z,99238.72
2019-03-17T00:45:12.442Z,99237.36
2019-03-17T00:47:41.995Z,99237.98
2019-03-17T00:50:12.482Z,99227.36
2019-03-17T00:52:42.064Z,99228.98
2019-03-17T00:55:11.701Z,99233.75
2019-03-17T00:57:41.163Z,99215.80
2019-03-17T01:00:17.481Z,99204.39
2019-03-17T01:02:47.074Z,99206.75
2019-03-17T01:05:16.658Z,99197.50
2019-03-17T01:07:46.121Z,99195.55
2019-03-17T01:10:15.748Z,99190.23
2019-03-17T01:12:45.317Z,99193.78
2019-03-17T01:15:14.788Z,99188.45
2019-03-17T01:17:44.294Z,99184.31
2019-03-17T01:20:13.829Z,99170.95
2019-03-17T01:22:43.310Z,99176.08
2019-03-17T01:25:12.872Z,99177.09
2019-03-17T01:27:42.373Z,99170.00
2019-03-17T01:30:13.384Z,99166.46
2019-03-17T01:32:42.850Z,99164.11
2019-03-17T01:35:12.493Z,99158.38
2019-03-17T01:37:41.980Z,99154.44
2019-03-17T01:40:11.972Z,99143.39
2019-03-17T01:42:41.465Z,99147.75
2019-03-17T01:45:11.482Z,99143.20
2019-03-17T01:47:40.960Z,99133.53
2019-03-17T01:50:11.016Z,99119.72
2019-03-17T01:52:40.508Z,99122.12
2019-03-17T01:55:10.041Z,99119.36
2019-03-17T01:57:39.547Z,99106.92
2019-03-17T02:00:12.816Z,99105.54
2019-03-17T02:02:42.323Z,99108.30
2019-03-17T02:05:21.267Z,99108.87
2019-03-17T02:07:43.098Z,99106.52
2019-03-17T02:10:12.982Z,99099.00
2019-03-17T02:12:42.445Z,99099.00
2019-03-17T02:15:12.187Z,99100.98
2019-03-17T02:17:41.652Z,99100.17
2019-03-17T02:20:11.800Z,99094.08
2019-03-17T02:22:41.271Z,99094.65
2019-03-17T02:25:10.839Z,99098.02
2019-03-17T02:27:40.338Z,99102.16
2019-03-17T02:30:12.703Z,99099.60
2019-03-17T02:32:42.179Z,99093.87
2019-03-17T02:35:11.656Z,99091.11
2019-03-17T02:37:41.130Z,99088.55
2019-03-17T02:40:10.736Z,99092.70
2019-03-17T02:42:40.221Z,99090.14
2019-03-17T02:45:11.029Z,99083.44
2019-03-17T02:47:40.520Z,99077.31
2019-03-17T02:50:10.688Z,99076.33
2019-03-17T02:52:40.173Z,99065.27
2019-03-17T02:55:10.303Z,99055.20
2019-03-17T02:57:39.809Z,99060.72
2019-03-17T03:00:11.324Z,99058.92
2019-03-17T03:02:40.808Z,99060.11
2019-03-17T03:05:10.472Z,99054.38
2019-03-17T03:07:39.971Z,99058.31
2019-03-17T03:10:17.694Z,99051.20
2019-03-17T03:12:47.154Z,99049.02
2019-03-17T03:15:16.649Z,99051.56
2019-03-17T03:17:46.131Z,99035.36
2019-03-17T03:20:15.751Z,99032.19
2019-03-17T03:22:45.184Z,99019.34
2019-03-17T03:25:14.716Z,99021.12
2019-03-17T03:27:44.228Z,99020.72
2019-03-17T03:30:14.533Z,99009.83
2019-03-17T03:32:43.992Z,99016.53
2019-03-17T03:35:13.581Z,99004.47
2019-03-17T03:37:43.139Z,98997.16
2019-03-17T03:40:13.636Z,99002.84
2019-03-17T03:42:43.124Z,98998.28
2019-03-17T03:45:14.246Z,99009.73
2019-03-17T03:47:43.708Z,99012.66
2019-03-17T03:50:13.655Z,99004.77
2019-03-17T03:52:43.193Z,99006.72
2019-03-17T03:55:12.814Z,99006.31
2019-03-17T03:57:42.372Z,99010.24
2019-03-17T04:00:15.055Z,98997.25
2019-03-17T04:02:44.524Z,98992.09
2019-03-17T04:05:14.003Z,98996.44
2019-03-17T04:07:43.567Z,98987.34
2019-03-17T04:10:13.303Z,98996.80
2019-03-17T04:12:42.801Z,98989.54
2019-03-17T04:15:13.597Z,98976.91
2019-03-17T04:17:43.164Z,98983.40
2019-03-17T04:20:13.528Z,98984.78
2019-03-17T04:22:43.092Z,98986.16
2019-03-17T04:25:14.395Z,98990.30
2019-03-17T04:27:43.858Z,98981.81
2019-03-17T04:30:13.453Z,98988.72
2019-03-17T04:32:42.958Z,98985.14
2019-03-17T04:35:12.496Z,98992.25
2019-03-17T04:37:42.051Z,98991.47
2019-03-17T04:40:12.123Z,98988.72
2019-03-17T04:42:41.611Z,98982.98
2019-03-17T04:45:11.742Z,98985.75
2019-03-17T04:47:41.209Z,98984.53
2019-03-17T04:50:11.345Z,98982.16
2019-03-17T04:52:40.821Z,98995.77
2019-03-17T04:55:10.532Z,98999.70
2019-03-17T04:57:40.008Z,99009.16
2019-03-17T05:00:13.032Z,98986.86
2019-03-17T05:02:42.534Z,98987.64
2019-03-17T05:05:12.131Z,98986.05
2019-03-17T05:07:41.632Z,98985.28
2019-03-17T05:10:11.566Z,98990.80
2019-03-17T05:12:41.055Z,98992.75
2019-03-17T05:15:12.235Z,98977.00
2019-03-17T05:17:41.719Z,98975.61
2019-03-17T05:20:11.849Z,98985.64
2019-03-17T05:22:41.422Z,98981.90
2019-03-17T05:25:11.054Z,98982.47
2019-03-17T05:27:40.581Z,98999.63
2019-03-17T05:30:12.093Z,98986.80
2019-03-17T05:32:41.602Z,98975.34
2019-03-17T05:35:11.145Z,98983.83
2019-03-17T05:37:40.685Z,98997.42
2019-03-17T05:40:11.737Z,98987.77
2019-03-17T05:42:41.362Z,98989.14
2019-03-17T05:45:11.087Z,98995.23
2019-03-17T05:47:40.567Z,99004.13
2019-03-17T05:50:11.218Z,99009.44
2019-03-17T05:52:40.718Z,99002.14
2019-03-17T05:55:11.432Z,99001.93
2019-03-17T05:57:40.930Z,99012.20
2019-03-17T06:00:16.598Z,99019.09
2019-03-17T06:02:46.059Z,99006.27
2019-03-17T06:05:15.596Z,99013.89
2019-03-17T06:07:45.089Z,99013.27
2019-03-17T06:10:14.573Z,99020.92
2019-03-17T06:12:44.146Z,99027.59
2019-03-17T06:15:13.753Z,99026.97
2019-03-17T06:17:43.248Z,99031.47
2019-03-17T06:20:13.651Z,99034.78
2019-03-17T06:22:43.209Z,99035.53
2019-03-17T06:25:12.884Z,99040.81
2019-03-17T06:27:42.372Z,99038.58
2019-03-17T06:30:13.742Z,99042.89
2019-03-17T06:32:43.234Z,99050.55
2019-03-17T06:35:12.762Z,99045.57
2019-03-17T06:37:42.336Z,99041.98
2019-03-17T06:40:14.978Z,99041.35
2019-03-17T06:42:44.568Z,99040.52
2019-03-17T06:45:14.166Z,99049.54
2019-03-17T06:47:43.699Z,99051.63
2019-03-17T06:50:15.102Z,99053.77
2019-03-17T06:52:44.595Z,99052.17
2019-03-17T06:55:17.665Z,99065.92
2019-03-17T06:57:47.124Z,99064.70
2019-03-17T07:00:16.754Z,99065.45
2019-03-17T07:02:46.235Z,99063.44
2019-03-17T07:05:15.786Z,99074.05
2019-03-17T07:07:45.341Z,99072.84
2019-03-17T07:10:14.878Z,99078.35
2019-03-17T07:12:44.409Z,99088.95
2019-03-17T07:15:14.047Z,99095.99
2019-03-17T07:17:43.634Z,99083.16
2019-03-17T07:20:15.280Z,99085.29
2019-03-17T07:22:44.851Z,99083.48
2019-03-17T07:25:14.491Z,99083.28
2019-03-17T07:27:43.938Z,99090.88
2019-03-17T07:30:17.316Z,99089.08
2019-03-17T07:32:46.879Z,99084.73
2019-03-17T07:35:16.430Z,99090.59
2019-03-17T07:37:56.204Z,99096.28
2019-03-17T07:40:17.385Z,99106.28
2019-03-17T07:42:46.879Z,99115.50
2019-03-17T07:45:16.431Z,99120.23
2019-03-17T07:47:45.920Z,99124.37
2019-03-17T07:50:15.459Z,99125.74
2019-03-17T07:52:44.918Z,99145.59
2019-03-17T07:55:14.521Z,99139.66
2019-03-17T07:57:44.020Z,99177.45
2019-03-17T08:00:14.780Z,99162.44
2019-03-17T08:02:44.262Z,99161.45
2019-03-17T08:05:13.840Z,99174.80
2019-03-17T08:08:09.264Z,99172.39
2019-03-17T08:10:33.991Z,99181.22
2019-03-17T08:13:03.553Z,99185.35
2019-03-17T08:15:33.034Z,99174.12
2019-03-17T08:18:02.550Z,99186.52
2019-03-17T08:20:32.041Z,99196.54
2019-03-17T08:23:01.507Z,99191.59
2019-03-17T08:25:30.988Z,99192.77
2019-03-17T08:28:00.457Z,99193.70
2019-03-17T08:30:29.957Z,99200.98
2019-03-17T08:32:59.440Z,99201.97
2019-03-17T08:35:28.986Z,99208.42
2019-03-17T08:37:58.475Z,99214.16
2019-03-17T08:40:28.063Z,99210.23
2019-03-17T08:42:57.729Z,99215.31
2019-03-17T08:45:27.183Z,99229.73
2019-03-17T08:47:58.606Z,99225.81
2019-03-17T08:50:27.944Z,99222.11
2019-03-17T08:52:57.464Z,99222.54
2019-03-17T08:55:26.899Z,99234.02
2019-03-17T08:57:56.467Z,99255.33
2019-03-17T09:00:25.953Z,99255.76
2019-03-17T09:02:55.444Z,99257.34
2019-03-17T09:05:26.504Z,99267.42
2019-03-17T09:07:55.987Z,99268.58
2019-03-17T09:10:25.493Z,99267.42
2019-03-17T09:12:55.031Z,99269.66
2019-03-17T09:15:24.659Z,99260.80
2019-03-17T09:17:54.210Z,99263.77
2019-03-17T09:20:23.715Z,99262.81
2019-03-17T09:22:53.333Z,99266.59
2019-03-17T09:25:22.824Z,99273.70
2019-03-17T09:27:52.335Z,99287.70
2019-03-17T09:30:21.963Z,99289.28
2019-03-17T09:32:51.441Z,99295.36
2019-03-17T09:35:20.928Z,99297.13
2019-03-17T09:37:50.539Z,99287.05
2019-03-17T09:40:20.187Z,99298.07
2019-03-17T09:42:49.677Z,99301.98
2019-03-17T09:45:19.271Z,99300.96
2019-03-17T09:47:48.943Z,99299.58
2019-03-17T09:50:20.226Z,99302.20
2019-03-17T09:52:49.769Z,99305.95
2019-03-17T09:55:19.245Z,99317.09
2019-03-17T09:57:48.810Z,99317.73
2019-03-17T10:00:20.225Z,99313.22
2019-03-17T10:02:49.710Z,99306.76
2019-03-17T10:05:19.221Z,99315.48
2019-03-17T10:07:48.783Z,99325.35
2019-03-17T10:10:23.477Z,99318.08
2019-03-17T10:12:52.971Z,99324.83
2019-03-17T10:15:22.585Z,99319.96
2019-03-17T10:17:52.208Z,99321.17
2019-03-17T10:20:22.021Z,99324.58
2019-03-17T10:23:10.871Z,99325.44
2019-03-17T10:25:40.333Z,99318.41
2019-03-17T10:28:10.761Z,99324.84
2019-03-17T10:30:40.276Z,99327.08
2019-03-17T10:33:09.821Z,99321.61
2019-03-17T10:35:39.342Z,99328.15
2019-03-17T10:38:08.890Z,99326.81
2019-03-17T10:40:38.401Z,99325.08
2019-03-17T10:43:07.861Z,99334.56
2019-03-17T10:45:37.491Z,99337.19
2019-03-17T10:48:06.949Z,99332.09
2019-03-17T10:50:48.723Z,99337.83
2019-03-17T10:53:07.787Z,99341.96
2019-03-17T10:55:37.283Z,99338.25
2019-03-17T10:58:06.828Z,99354.20
2019-03-17T11:00:36.321Z,99349.71
2019-03-17T11:03:06.005Z,99354.49
2019-03-17T11:05:35.510Z,99352.16
2019-03-17T11:08:05.083Z,99355.98
2019-03-17T11:10:34.611Z,99348.20
2019-03-17T11:13:04.185Z,99361.30
2019-03-17T11:15:33.724Z,99355.11
2019-03-17T11:18:03.208Z,99364.31
2019-03-17T11:20:32.844Z,99371.73
2019-03-17T11:23:02.391Z,99375.45
2019-03-17T11:25:31.895Z,99380.12
2019-03-17T11:28:01.467Z,99396.07
2019-03-17T11:30:31.095Z,99388.84
2019-03-17T11:33:00.634Z,99403.29
2019-03-17T11:35:30.093Z,99385.40
2019-03-17T11:37:59.576Z,99391.20
2019-03-17T11:40:29.074Z,99371.20
2019-03-17T11:42:58.568Z,99377.66
2019-03-17T11:45:28.046Z,99386.03
2019-03-17T11:47:57.620Z,99382.36
2019-03-17T11:50:27.198Z,99389.14
2019-03-17T11:52:56.667Z,99387.64
2019-03-17T11:55:26.214Z,99390.64
2019-03-17T11:57:55.767Z,99371.70
2019-03-17T12:00:25.498Z,99409.84
2019-03-17T12:02:55.032Z,99366.72
2019-03-17T12:05:24.643Z,99383.28
2019-03-17T12:07:55.101Z,99386.53
2019-03-17T12:10:25.309Z,99388.05
2019-03-17T12:12:54.907Z,99387.14
2019-03-17T12:15:35.636Z,99398.71
2019-03-17T12:18:05.302Z,99393.94
2019-03-17T12:20:34.896Z,99397.45
2019-03-17T12:23:04.524Z,99394.84
2019-03-17T12:25:34.106Z,99406.28
2019-03-17T12:28:03.648Z,99403.52
2019-03-17T12:30:33.117Z,99398.14
2019-03-17T12:33:02.714Z,99407.03
2019-03-17T12:35:32.293Z,99406.21
2019-03-17T12:38:01.761Z,99396.97
2019-03-17T12:40:31.282Z,99400.63
2019-03-17T12:43:00.766Z,99400.33
2019-03-17T12:45:30.263Z,99399.31
2019-03-17T12:47:59.742Z,99419.16
2019-03-17T12:50:29.334Z,99456.97
2019-03-17T12:52:58.926Z,99463.67
2019-03-17T12:55:28.416Z,99467.87
2019-03-17T12:57:57.999Z,99474.17
2019-03-17T13:00:28.189Z,99474.08
2019-03-17T13:02:57.750Z,99464.17
2019-03-17T13:05:27.220Z,99477.59
2019-03-17T13:07:56.857Z,99478.47
2019-03-17T13:10:26.406Z,99496.30
2019-03-17T13:12:55.914Z,99541.66
2019-03-17T13:15:25.485Z,99519.11
2019-03-17T13:17:55.010Z,99506.22
2019-03-17T13:20:24.547Z,99495.08
2019-03-17T13:22:54.058Z,99513.49
2019-03-17T13:25:23.574Z,99528.23
2019-03-17T13:27:53.114Z,99518.22
2019-03-17T13:30:22.750Z,99516.92
2019-03-17T13:32:52.223Z,99517.36
2019-03-17T13:35:21.789Z,99531.41
2019-03-17T13:37:51.258Z,99531.75
2019-03-17T13:40:29.242Z,99527.84
2019-03-17T13:42:52.805Z,99522.77
2019-03-17T13:45:22.473Z,99532.41
2019-03-17T13:47:53.167Z,99534.01
2019-03-17T13:50:24.642Z,99542.49
2019-03-17T13:52:54.107Z,99547.78
2019-03-17T13:55:23.595Z,99533.80
2019-03-17T13:58:08.937Z,99566.40
2019-03-17T14:00:38.430Z,99576.97
2019-03-17T14:03:07.988Z,99585.61
2019-03-17T14:05:37.582Z,99587.10
2019-03-17T14:08:07.062Z,99597.23
2019-03-17T14:10:41.343Z,99569.97
2019-03-17T14:13:07.835Z,99578.49
2019-03-17T14:15:37.390Z,99582.45
2019-03-17T14:18:06.979Z,99580.97
2019-03-17T14:20:36.444Z,99585.09
2019-03-17T14:23:06.102Z,99588.17
2019-03-17T14:25:38.103Z,99582.84
2019-03-17T14:28:07.609Z,99592.17
2019-03-17T14:30:37.121Z,99595.05
2019-03-17T14:33:06.738Z,99591.97
2019-03-17T14:35:36.348Z,99599.12
2019-03-17T14:38:05.950Z,99596.41
2019-03-17T14:40:35.456Z,99599.33
2019-03-17T14:43:05.052Z,99603.87
2019-03-17T14:45:34.567Z,99595.09
2019-03-17T14:48:04.216Z,99602.08
2019-03-17T14:50:33.699Z,99602.87
2019-03-17T14:53:03.175Z,99606.06
2019-03-17T14:55:32.761Z,99600.98
2019-03-17T14:58:02.236Z,99605.78
2019-03-17T15:00:31.829Z,99604.12
2019-03-17T15:03:01.328Z,99614.64
2019-03-17T15:05:30.793Z,99615.52
2019-03-17T15:08:00.310Z,99618.52
2019-03-17T15:10:29.861Z,99615.98
2019-03-17T15:12:59.510Z,99624.48
2019-03-17T15:15:29.158Z,99620.03
2019-03-17T15:17:58.629Z,99630.03
2019-03-17T15:20:28.655Z,99626.83
2019-03-17T15:22:58.293Z,99641.34
2019-03-17T15:25:27.843Z,99634.45
2019-03-17T15:27:57.334Z,99642.06
2019-03-17T15:30:28.742Z,99663.67
2019-03-17T15:32:58.416Z,99663.95
2019-03-17T15:35:27.941Z,99692.95
2019-03-17T15:37:57.500Z,99679.02
2019-03-17T15:40:27.138Z,99683.64
2019-03-17T15:42:56.663Z,99679.98
2019-03-17T15:45:26.531Z,99678.73
2019-03-17T15:47:56.088Z,99693.48
2019-03-17T15:50:30.436Z,99687.56
2019-03-17T15:53:00.009Z,99686.48
2019-03-17T15:55:29.550Z,99690.77
2019-03-17T15:57:59.092Z,99699.13
2019-03-17T16:00:28.700Z,99697.30
2019-03-17T16:02:58.376Z,99688.46
2019-03-17T16:05:27.934Z,99704.27
2019-03-17T16:07:57.479Z,99706.69
2019-03-17T16:10:31.284Z,99698.44
2019-03-17T16:13:00.839Z,99706.23
2019-03-17T16:15:30.343Z,99713.81
2019-03-17T16:17:59.800Z,99725.29
2019-03-17T16:20:29.714Z,99723.23
2019-03-17T16:22:59.251Z,99740.44
2019-03-17T16:25:53.974Z,99727.37
2019-03-17T16:28:23.455Z,99729.67
2019-03-17T16:30:53.043Z,99734.73
2019-03-17T16:33:22.605Z,99733.34
2019-03-17T16:35:52.140Z,99741.37
2019-03-17T16:38:21.728Z,99750.87
2019-03-17T16:40:51.278Z,99742.84
2019-03-17T16:43:20.855Z,99750.98
2019-03-17T16:45:50.322Z,99747.54
2019-03-17T16:48:19.824Z,99756.25
2019-03-17T16:50:49.302Z,99762.66
2019-03-17T16:53:19.735Z,99767.33
2019-03-17T16:55:49.276Z,99766.52
2019-03-17T16:58:18.779Z,99771.09
2019-03-17T17:00:48.350Z,99775.68
2019-03-17T17:03:17.871Z,99778.44
2019-03-17T17:05:47.410Z,99785.09
2019-03-17T17:08:16.881Z,99790.14
2019-03-17T17:10:50.187Z,99792.20
2019-03-17T17:13:17.670Z,99791.86
2019-03-17T17:15:47.170Z,99792.69
2019-03-17T17:18:16.732Z,99797.05
2019-03-17T17:20:46.246Z,99804.17
2019-03-17T17:23:15.731Z,99809.91
2019-03-17T17:25:45.239Z,99817.91
2019-03-17T17:28:14.895Z,99810.12
2019-03-17T17:30:44.367Z,99816.67
2019-03-17T17:33:13.947Z,99812.19
2019-03-17T17:35:43.548Z,99815.98
2019-03-17T17:38:13.154Z,99829.92
2019-03-17T17:41:02.177Z,99825.44
2019-03-17T17:43:31.637Z,99829.80
2019-03-17T17:46:01.119Z,99830.58
2019-03-17T17:48:30.763Z,99839.86
2019-03-17T17:51:00.295Z,99842.25
2019-03-17T17:53:29.836Z,99848.19
2019-03-17T17:55:59.348Z,99865.69
2019-03-17T17:58:28.824Z,99867.52
2019-03-17T18:00:58.441Z,99868.19
2019-03-17T18:03:27.947Z,99884.21
2019-03-17T18:05:57.500Z,99881.00
2019-03-17T18:08:27.016Z,99880.77
2019-03-17T18:10:56.556Z,99895.65
2019-03-17T18:13:26.050Z,99903.66
2019-03-17T18:15:55.551Z,99901.59
2019-03-17T18:18:25.057Z,99914.53
2019-03-17T18:20:54.554Z,99918.19
2019-03-17T18:23:24.085Z,99914.06
2019-03-17T18:25:53.534Z,99924.47
2019-03-17T18:28:23.067Z,99942.09
2019-03-17T18:30:52.544Z,99987.18
2019-03-17T18:33:22.039Z,100012.45
2019-03-17T18:35:51.607Z,100010.95
2019-03-17T18:38:21.194Z,100018.67
2019-03-17T18:40:50.672Z,100021.23
2019-03-17T18:43:20.284Z,100021.81
2019-03-17T18:45:49.821Z,100011.64
2019-03-17T18:48:19.352Z,100017.21
2019-03-17T18:50:48.921Z,100012.08
2019-03-17T18:53:18.489Z,100015.27
2019-03-17T18:55:48.018Z,100039.42
2019-03-17T18:58:17.487Z,100035.64
2019-03-17T19:00:47.054Z,100034.59
2019-03-17T19:03:16.649Z,100024.17
2019-03-17T19:05:46.248Z,100026.04
2019-03-17T19:08:15.737Z,100033.59
2019-03-17T19:10:45.308Z,100038.43
2019-03-17T19:13:14.960Z,100046.22
2019-03-17T19:15:44.521Z,100049.34
2019-03-17T19:18:14.106Z,100053.52
2019-03-17T19:20:43.667Z,100055.77
2019-03-17T19:23:13.111Z,100053.36
2019-03-17T19:25:42.692Z,100054.78
2019-03-17T19:28:12.192Z,100061.72
2019-03-17T19:30:41.668Z,100059.05
2019-03-17T19:33:11.197Z,100067.34
2019-03-17T19:35:40.680Z,100080.05
2019-03-17T19:38:10.184Z,100082.59
2019-03-17T19:40:39.673Z,100092.25
2019-03-17T19:43:09.181Z,100092.64
2019-03-17T19:45:38.715Z,100096.80
2019-03-17T19:48:08.325Z,100097.73
2019-03-17T19:50:37.921Z,100106.56
2019-03-17T19:53:07.539Z,100108.08
2019-03-17T19:55:37.060Z,100113.38
2019-03-17T19:58:06.718Z,100112.69
2019-03-17T20:00:36.280Z,100117.42
2019-03-17T20:03:05.847Z,100118.59
2019-03-17T20:05:35.462Z,100128.87
2019-03-17T20:08:04.982Z,100125.16
2019-03-17T20:10:35.318Z,100130.75
2019-03-17T20:13:11.550Z,100135.23
2019-03-17T20:15:36.239Z,100140.00
2019-03-17T20:18:05.741Z,100143.41
2019-03-17T20:20:35.324Z,100141.87
2019-03-17T20:23:04.848Z,100143.66
2019-03-17T20:25:34.462Z,100161.54
2019-03-17T20:28:04.130Z,100157.56
2019-03-17T20:30:33.669Z,100156.56
2019-03-17T20:33:03.214Z,100162.14
2019-03-17T20:35:32.713Z,100163.63
2019-03-17T20:38:02.207Z,100179.56
2019-03-17T20:40:31.760Z,100184.59
2019-03-17T20:43:01.250Z,100183.56
2019-03-17T20:45:30.743Z,100192.38
2019-03-17T20:48:00.292Z,100186.70
2019-03-17T20:50:29.806Z,100188.11
2019-03-17T20:52:59.512Z,100192.56
2019-03-17T20:55:29.259Z,100187.72
2019-03-17T20:57:59.113Z,100190.80
2019-03-17T21:00:28.692Z,100184.09
2019-03-17T21:02:58.194Z,100185.81
2019-03-17T21:05:27.705Z,100191.62
2019-03-17T21:07:57.260Z,100194.72
2019-03-17T21:10:26.795Z,100200.28
2019-03-17T21:12:56.751Z,100198.70
2019-03-17T21:15:26.311Z,100198.52
2019-03-17T21:17:55.826Z,100198.61
2019-03-17T21:20:26.124Z,100198.97
2019-03-17T21:22:55.615Z,100202.05
2019-03-17T21:25:25.172Z,100206.72
2019-03-17T21:27:54.653Z,100208.43
2019-03-17T21:30:30.688Z,100214.49
2019-03-17T21:33:00.338Z,100206.66
2019-03-17T21:35:29.870Z,100202.88
2019-03-17T21:37:59.517Z,100212.43
2019-03-17T21:40:29.102Z,100208.62
2019-03-17T21:42:58.620Z,100201.77
2019-03-17T21:45:28.118Z,100212.37
2019-03-17T21:47:57.610Z,100233.08
2019-03-17T21:50:27.115Z,100253.19
2019-03-17T21:52:56.661Z,100259.66
2019-03-17T21:55:26.159Z,100270.25
2019-03-17T21:57:55.717Z,100273.14
2019-03-17T22:00:25.231Z,100286.42
2019-03-17T22:02:55.333Z,100286.08
2019-03-17T22:05:24.937Z,100272.59
2019-03-17T22:07:54.441Z,100274.37
2019-03-17T22:10:24.003Z,100282.96
2019-03-17T22:12:53.496Z,100279.27
2019-03-17T22:15:42.366Z,100279.12
2019-03-17T22:18:11.886Z,100261.53
2019-03-17T22:20:41.375Z,100259.27
2019-03-17T22:23:10.884Z,100261.64
2019-03-17T22:25:40.390Z,100259.95
2019-03-17T22:28:09.874Z,100256.68
2019-03-17T22:30:39.469Z,100269.25
2019-03-17T22:33:08.929Z,100258.83
2019-03-17T22:35:38.419Z,100260.95
2019-03-17T22:38:07.898Z,100266.09
2019-03-17T22:40:37.447Z,100263.32
2019-03-17T22:43:06.914Z,100268.97
2019-03-17T22:45:36.473Z,100264.83
2019-03-17T22:48:06.092Z,100269.17
2019-03-17T22:50:35.565Z,100267.20
2019-03-17T22:53:05.131Z,100267.16
2019-03-17T22:55:34.591Z,100268.20
2019-03-17T22:58:04.083Z,100272.80
2019-03-17T23:00:33.550Z,100268.70
2019-03-17T23:03:03.187Z,100273.05
2019-03-17T23:05:32.804Z,100271.44
2019-03-17T23:08:02.303Z,100275.78
2019-03-17T23:10:31.786Z,100284.80
2019-03-17T23:13:01.377Z,100277.15
2019-03-17T23:15:30.956Z,100271.94
2019-03-17T23:18:00.413Z,100284.48
2019-03-17T23:20:29.883Z,100281.75
2019-03-17T23:22:59.368Z,100285.59
2019-03-17T23:25:28.865Z,100285.92
2019-03-17T23:27:58.343Z,100294.66
2019-03-17T23:30:27.892Z,100282.61
2019-03-17T23:32:57.700Z,100292.50
2019-03-17T23:35:27.189Z,100291.42
2019-03-17T23:37:56.690Z,100281.61
2019-03-17T23:40:26.235Z,100274.53
2019-03-17T23:42:55.724Z,100283.80
2019-03-17T23:45:25.214Z,100268.20
2019-03-17T23:47:54.719Z,100275.89
2019-03-17T23:50:24.221Z,100280.56
2019-03-17T23:52:53.697Z,100276.76
2019-03-17T23:55:23.194Z,100291.28
2019-03-17T23:57:52.699Z,100291.57
